createdAt,value
2022-09-14T00:00:13.301Z,99289.94
2022-09-14T00:02:42.874Z,99285.72
2022-09-14T00:05:12.590Z,99283.55
2022-09-14T00:07:42.387Z,99288.19
2022-09-14T00:10:12.157Z,99277.73
2022-09-14T00:12:42.127Z,99277.73
2022-09-14T00:15:11.993Z,99287.20
2022-09-14T00:17:41.780Z,99285.02
2022-09-14T00:20:11.892Z,99286.03
2022-09-14T00:22:42.062Z,99282.94
2022-09-14T00:25:11.807Z,99279.62
2022-09-14T00:27:41.591Z,99277.86
2022-09-14T00:30:12.065Z,99277.51
2022-09-14T00:32:42.113Z,99283.48
2022-09-14T00:35:11.696Z,99283.48
2022-09-14T00:37:41.498Z,99284.16
2022-09-14T00:40:12.494Z,99283.33
2022-09-14T00:42:41.321Z,99283.15
2022-09-14T00:45:16.872Z,99284.00
2022-09-14T00:47:50.008Z,99279.69
2022-09-14T00:50:20.259Z,99279.38
2022-09-14T00:52:51.564Z,99265.09
2022-09-14T00:55:24.151Z,99265.09
2022-09-14T00:57:55.338Z,99281.94
2022-09-14T01:00:27.171Z,99277.62
2022-09-14T01:02:57.494Z,99273.78
2022-09-14T01:05:44.777Z,99273.31
2022-09-14T01:08:17.592Z,99278.78
2022-09-14T01:10:59.589Z,99270.79
2022-09-14T01:13:44.448Z,99272.46
2022-09-14T01:16:46.178Z,99270.95
2022-09-14T01:19:19.108Z,99280.78
2022-09-14T01:21:51.250Z,99285.45
2022-09-14T01:24:40.445Z,99283.61
2022-09-14T01:27:20.715Z,99276.61
2022-09-14T01:29:56.592Z,99274.48
2022-09-14T01:32:41.244Z,99275.11
2022-09-14T01:35:22.894Z,99271.25
2022-09-14T01:37:55.754Z,99267.41
2022-09-14T01:40:46.945Z,99276.28
2022-09-14T01:43:23.234Z,99272.47
2022-09-14T01:45:59.273Z,99253.64
2022-09-14T01:48:35.675Z,99253.64
2022-09-14T01:51:09.719Z,99259.81
2022-09-14T01:53:42.739Z,99258.81
2022-09-14T01:56:21.126Z,99254.58
2022-09-14T01:58:59.585Z,99253.63
2022-09-14T02:01:41.147Z,99252.78
2022-09-14T02:04:14.116Z,99256.62
2022-09-14T02:06:47.239Z,99260.48
2022-09-14T02:09:19.879Z,99250.45
2022-09-14T02:11:50.115Z,99247.16
2022-09-14T02:14:19.758Z,99250.31
2022-09-14T02:16:49.608Z,99248.16
2022-09-14T02:19:23.538Z,99234.83
2022-09-14T02:21:51.166Z,99239.33
2022-09-14T02:24:21.384Z,99239.65
2022-09-14T02:26:53.515Z,99229.83
2022-09-14T02:29:23.203Z,99232.66
2022-09-14T02:31:56.317Z,99232.33
2022-09-14T02:34:44.080Z,99227.50
2022-09-14T02:37:16.613Z,99234.98
2022-09-14T02:39:55.461Z,99234.66
2022-09-14T02:42:37.289Z,99232.84
2022-09-14T02:45:30.936Z,99228.84
2022-09-14T02:48:09.857Z,99228.66
2022-09-14T02:50:51.208Z,99227.99
2022-09-14T02:53:40.069Z,99219.35
2022-09-14T02:56:12.225Z,99228.34
2022-09-14T02:58:44.986Z,99225.69
2022-09-14T03:01:20.955Z,99236.45
2022-09-14T03:03:51.531Z,99234.84
2022-09-14T03:06:21.373Z,99234.34
2022-09-14T03:08:51.228Z,99232.00
2022-09-14T03:11:21.098Z,99235.47
2022-09-14T03:13:50.993Z,99232.78
2022-09-14T03:16:21.230Z,99228.97
2022-09-14T03:18:51.403Z,99224.63
2022-09-14T03:21:21.010Z,99228.09
2022-09-14T03:23:54.767Z,99224.75
2022-09-14T03:26:25.791Z,99225.61
2022-09-14T03:28:56.242Z,99220.97
2022-09-14T03:31:27.543Z,99220.42
2022-09-14T03:33:59.476Z,99220.45
2022-09-14T03:36:31.707Z,99215.43
2022-09-14T03:39:02.180Z,99216.74
2022-09-14T03:41:31.757Z,99215.37
2022-09-14T03:44:01.619Z,99208.92
2022-09-14T03:46:31.508Z,99207.57
2022-09-14T03:49:01.587Z,99210.89
2022-09-14T03:51:31.387Z,99210.89
2022-09-14T03:54:02.599Z,99208.86
2022-09-14T03:56:32.501Z,99213.16
2022-09-14T03:59:03.222Z,99214.49
2022-09-14T04:01:34.765Z,99210.84
2022-09-14T04:04:05.540Z,99215.98
2022-09-14T04:06:36.549Z,99207.13
2022-09-14T04:09:26.091Z,99218.48
2022-09-14T04:11:55.896Z,99216.97
2022-09-14T04:14:26.134Z,99220.11
2022-09-14T04:16:56.893Z,99221.28
2022-09-14T04:19:26.769Z,99214.95
2022-09-14T04:21:56.564Z,99217.77
2022-09-14T04:24:30.231Z,99219.07
2022-09-14T04:26:57.887Z,99216.72
2022-09-14T04:29:29.409Z,99216.05
2022-09-14T04:31:59.208Z,99199.27
2022-09-14T04:34:29.109Z,99219.86
2022-09-14T04:36:58.902Z,99218.03
2022-09-14T04:39:28.799Z,99215.72
2022-09-14T04:41:58.873Z,99217.88
2022-09-14T04:44:28.830Z,99221.71
2022-09-14T04:46:58.743Z,99219.67
2022-09-14T04:49:28.871Z,99234.77
2022-09-14T04:51:58.752Z,99239.22
2022-09-14T04:54:28.604Z,99240.89
2022-09-14T04:56:58.718Z,99231.58
2022-09-14T04:59:28.520Z,99224.23
2022-09-14T05:01:58.400Z,99228.59
2022-09-14T05:04:28.257Z,99228.77
2022-09-14T05:06:58.066Z,99236.74
2022-09-14T05:09:28.037Z,99233.28
2022-09-14T05:11:57.704Z,99228.52
2022-09-14T05:14:27.560Z,99234.16
2022-09-14T05:16:59.005Z,99234.34
2022-09-14T05:19:28.566Z,99232.05
2022-09-14T05:21:58.378Z,99216.77
2022-09-14T05:24:28.334Z,99231.28
2022-09-14T05:27:00.978Z,99230.46
2022-09-14T05:29:30.042Z,99235.83
2022-09-14T05:32:00.409Z,99234.00
2022-09-14T05:34:30.073Z,99237.34
2022-09-14T05:36:59.885Z,99235.70
2022-09-14T05:39:29.672Z,99228.08
2022-09-14T05:41:59.639Z,99227.42
2022-09-14T05:44:29.731Z,99237.24
2022-09-14T05:46:59.529Z,99234.93
2022-09-14T05:49:29.986Z,99234.93
2022-09-14T05:51:59.532Z,99232.95
2022-09-14T05:54:29.468Z,99220.64
2022-09-14T05:56:59.273Z,99220.64
2022-09-14T05:59:30.698Z,99221.14
2022-09-14T06:02:00.639Z,99211.05
2022-09-14T06:04:30.468Z,99216.02
2022-09-14T06:07:17.924Z,99218.36
2022-09-14T06:09:33.192Z,99225.69
2022-09-14T06:12:01.831Z,99224.33
2022-09-14T06:14:31.637Z,99220.17
2022-09-14T06:17:03.443Z,99222.66
2022-09-14T06:19:33.726Z,99213.84
2022-09-14T06:22:03.550Z,99219.97
2022-09-14T06:24:33.414Z,99217.97
2022-09-14T06:27:03.575Z,99216.30
2022-09-14T06:29:33.659Z,99218.25
2022-09-14T06:32:03.700Z,99215.50
2022-09-14T06:34:34.581Z,99215.83
2022-09-14T06:37:04.092Z,99211.64
2022-09-14T06:39:34.259Z,99221.05
2022-09-14T06:42:03.846Z,99221.05
2022-09-14T06:44:34.872Z,99213.95
2022-09-14T06:47:03.666Z,99219.31
2022-09-14T06:49:33.248Z,99200.66
2022-09-14T06:52:03.188Z,99200.66
2022-09-14T06:54:32.971Z,99213.53
2022-09-14T06:57:03.545Z,99215.66
2022-09-14T06:59:33.037Z,99214.14
2022-09-14T07:02:02.856Z,99214.92
2022-09-14T07:04:32.655Z,99212.50
2022-09-14T07:07:02.517Z,99218.28
2022-09-14T07:09:32.328Z,99216.34
2022-09-14T07:12:02.642Z,99219.66
2022-09-14T07:14:32.599Z,99211.59
2022-09-14T07:17:02.378Z,99213.30
2022-09-14T07:19:32.478Z,99213.67
2022-09-14T07:22:02.489Z,99209.48
2022-09-14T07:24:32.331Z,99212.48
2022-09-14T07:27:03.193Z,99215.89
2022-09-14T07:29:33.336Z,99212.50
2022-09-14T07:32:03.366Z,99212.10
2022-09-14T07:34:33.207Z,99207.69
2022-09-14T07:37:04.725Z,99206.75
2022-09-14T07:39:34.545Z,99209.68
2022-09-14T07:42:04.446Z,99202.88
2022-09-14T07:44:34.309Z,99208.25
2022-09-14T07:47:04.203Z,99206.36
2022-09-14T07:49:34.010Z,99209.30
2022-09-14T07:52:04.343Z,99213.56
2022-09-14T07:54:34.563Z,99212.84
2022-09-14T07:57:04.736Z,99210.86
2022-09-14T07:59:36.439Z,99214.88
2022-09-14T08:02:11.987Z,99216.41
2022-09-14T08:04:42.428Z,99209.24
2022-09-14T08:07:11.308Z,99208.95
2022-09-14T08:09:40.400Z,99204.86
2022-09-14T08:12:09.606Z,99210.56
2022-09-14T08:14:39.039Z,99211.88
2022-09-14T08:17:08.006Z,99207.48
2022-09-14T08:19:37.878Z,99202.50
2022-09-14T08:22:06.751Z,99205.91
2022-09-14T08:24:35.855Z,99202.90
2022-09-14T08:27:06.310Z,99202.90
2022-09-14T08:29:35.695Z,99200.81
2022-09-14T08:32:04.957Z,99201.19
2022-09-14T08:34:35.550Z,99203.94
2022-09-14T08:37:04.370Z,99198.19
2022-09-14T08:39:33.547Z,99204.91
2022-09-14T08:42:03.607Z,99200.13
2022-09-14T08:44:38.772Z,99204.38
2022-09-14T08:47:19.437Z,99211.78
2022-09-14T08:49:57.605Z,99206.88
2022-09-14T08:52:35.512Z,99200.75
2022-09-14T08:55:25.570Z,99204.91
2022-09-14T08:58:06.308Z,99198.70
2022-09-14T09:00:44.529Z,99201.27
2022-09-14T09:03:28.677Z,99199.78
2022-09-14T09:06:16.410Z,99195.13
2022-09-14T09:08:54.410Z,99197.80
2022-09-14T09:11:26.287Z,99199.53
2022-09-14T09:13:56.744Z,99184.55
2022-09-14T09:16:28.823Z,99184.55
2022-09-14T09:19:06.662Z,99193.83
2022-09-14T09:21:38.791Z,99201.52
2022-09-14T09:24:28.769Z,99194.72
2022-09-14T09:26:59.906Z,99201.67
2022-09-14T09:29:29.205Z,99196.89
2022-09-14T09:32:16.297Z,99196.95
2022-09-14T09:35:05.249Z,99182.97
2022-09-14T09:37:53.127Z,99182.97
2022-09-14T09:40:25.822Z,99197.47
2022-09-14T09:43:13.435Z,99195.11
2022-09-14T09:45:52.210Z,99195.42
2022-09-14T09:48:28.136Z,99190.11
2022-09-14T09:51:28.120Z,99192.02
2022-09-14T09:54:10.516Z,99189.02
2022-09-14T09:56:43.604Z,99168.02
2022-09-14T09:59:37.957Z,99168.02
2022-09-14T10:02:32.634Z,99190.69
2022-09-14T10:05:13.763Z,99189.16
2022-09-14T10:07:56.172Z,99190.19
2022-09-14T10:10:43.038Z,99189.61
2022-09-14T10:13:28.641Z,99184.36
2022-09-14T10:16:10.590Z,99185.75
2022-09-14T10:18:46.878Z,99184.06
2022-09-14T10:21:17.704Z,99183.64
2022-09-14T10:23:49.564Z,99181.86
2022-09-14T10:26:22.222Z,99182.05
2022-09-14T10:28:52.769Z,99178.66
2022-09-14T10:31:28.178Z,99175.41
2022-09-14T10:33:58.936Z,99173.17
2022-09-14T10:36:32.447Z,99174.70
2022-09-14T10:39:26.141Z,99172.16
2022-09-14T10:42:26.958Z,99175.16
2022-09-14T10:45:14.882Z,99176.81
2022-09-14T10:47:50.484Z,99170.37
2022-09-14T10:50:44.324Z,99162.41
2022-09-14T10:53:50.462Z,99166.80
2022-09-14T10:56:31.474Z,99158.44
2022-09-14T10:59:04.331Z,99158.19
2022-09-14T11:01:52.113Z,99157.72
2022-09-14T11:04:45.496Z,99158.08
2022-09-14T11:07:20.873Z,99157.31
2022-09-14T11:10:02.571Z,99150.13
2022-09-14T11:12:41.335Z,99154.61
2022-09-14T11:15:26.171Z,99149.75
2022-09-14T11:18:17.195Z,99147.77
2022-09-14T11:21:01.813Z,99145.29
2022-09-14T11:23:43.460Z,99145.63
2022-09-14T11:26:16.319Z,99144.06
2022-09-14T11:28:57.856Z,99142.23
2022-09-14T11:31:39.338Z,99143.51
2022-09-14T11:34:11.891Z,99146.94
2022-09-14T11:36:44.724Z,99136.64
2022-09-14T11:39:20.368Z,99127.03
2022-09-14T11:42:02.541Z,99098.30
2022-09-14T11:44:37.872Z,99098.30
2022-09-14T11:47:10.722Z,99120.06
2022-09-14T11:49:57.635Z,99117.10
2022-09-14T11:52:33.026Z,99109.99
2022-09-14T11:55:03.856Z,99091.15
2022-09-14T11:57:35.191Z,99091.15
2022-09-14T12:00:11.496Z,99098.95
2022-09-14T12:02:44.181Z,99103.91
2022-09-14T12:05:17.019Z,99103.91
2022-09-14T12:07:53.962Z,99101.94
2022-09-14T12:10:23.792Z,99105.38
2022-09-14T12:13:11.313Z,99102.77
2022-09-14T12:15:42.092Z,99102.85
2022-09-14T12:18:13.409Z,99099.23
2022-09-14T12:20:51.100Z,99100.30
2022-09-14T12:23:45.177Z,99098.55
2022-09-14T12:26:23.752Z,99107.70
2022-09-14T12:28:58.715Z,99113.81
2022-09-14T12:31:36.346Z,99110.41
2022-09-14T12:34:24.730Z,99113.08
2022-09-14T12:36:59.066Z,99103.67
2022-09-14T12:39:35.011Z,99094.09
2022-09-14T12:42:27.289Z,99089.30
2022-09-14T12:44:57.236Z,99082.93
2022-09-14T12:47:30.065Z,99083.00
2022-09-14T12:50:23.146Z,99085.80
2022-09-14T12:53:04.816Z,99087.88
2022-09-14T12:55:47.699Z,99096.14
2022-09-14T12:58:32.465Z,99084.64
2022-09-14T13:01:08.348Z,99054.55
2022-09-14T13:03:52.853Z,99066.19
2022-09-14T13:06:23.995Z,99071.06
2022-09-14T13:08:56.537Z,99069.76
2022-09-14T13:11:32.050Z,99064.52
2022-09-14T13:14:02.984Z,99070.08
2022-09-14T13:16:47.897Z,99051.48
2022-09-14T13:19:24.100Z,99037.53
2022-09-14T13:21:57.200Z,99036.08
2022-09-14T13:24:32.072Z,99031.95
2022-09-14T13:27:03.513Z,99032.98
2022-09-14T13:29:33.171Z,99027.60
2022-09-14T13:32:04.274Z,99022.33
2022-09-14T13:34:38.328Z,99035.06
2022-09-14T13:37:08.169Z,99031.03
2022-09-14T13:39:41.901Z,99028.64
2022-09-14T13:42:12.042Z,99019.25
2022-09-14T13:44:46.364Z,99022.64
2022-09-14T13:47:18.789Z,99021.91
2022-09-14T13:49:51.438Z,99018.80
2022-09-14T13:52:38.964Z,99001.75
2022-09-14T13:55:25.651Z,99001.75
2022-09-14T13:58:16.583Z,98995.80
2022-09-14T14:00:49.799Z,98988.16
2022-09-14T14:03:44.549Z,98989.05
2022-09-14T14:06:38.575Z,98989.05
2022-09-14T14:09:12.001Z,98989.66
2022-09-14T14:11:45.527Z,98987.30
2022-09-14T14:14:28.852Z,98989.45
2022-09-14T14:17:13.126Z,98980.77
2022-09-14T14:19:43.774Z,98983.46
2022-09-14T14:22:16.446Z,98987.08
2022-09-14T14:27:35.283Z,98986.77
2022-09-14T14:30:09.475Z,98982.32
2022-09-14T14:32:39.300Z,98967.78
2022-09-14T14:35:18.321Z,98967.78
2022-09-14T14:37:48.859Z,98989.38
2022-09-14T14:40:20.595Z,98987.73
2022-09-14T14:42:51.389Z,98986.53
2022-09-14T14:45:25.966Z,98986.38
2022-09-14T14:47:57.001Z,98963.61
2022-09-14T14:50:33.692Z,98963.61
2022-09-14T14:53:03.799Z,98973.76
2022-09-14T14:55:36.674Z,98976.82
2022-09-14T14:58:09.988Z,98979.47
2022-09-14T15:00:39.831Z,98978.95
2022-09-14T15:03:09.825Z,98973.66
2022-09-14T15:05:47.184Z,98975.69
2022-09-14T15:08:20.153Z,98971.05
2022-09-14T15:10:51.478Z,98967.34
2022-09-14T15:13:20.987Z,98963.79
2022-09-14T15:15:50.809Z,98945.23
2022-09-14T15:18:20.579Z,98958.61
2022-09-14T15:20:50.378Z,98959.84
2022-09-14T15:23:22.704Z,98963.75
2022-09-14T15:25:54.310Z,98961.30
2022-09-14T15:28:24.211Z,98960.36
2022-09-14T15:30:56.393Z,98966.33
2022-09-14T15:33:26.212Z,98964.67
2022-09-14T15:35:57.553Z,98963.47
2022-09-14T15:38:27.570Z,98965.78
2022-09-14T15:40:57.393Z,98961.93
2022-09-14T15:43:27.186Z,98961.93
2022-09-14T15:45:58.511Z,98961.13
2022-09-14T15:48:28.282Z,98940.50
2022-09-14T15:51:00.274Z,98940.50
2022-09-14T15:53:30.093Z,98967.42
2022-09-14T15:55:59.914Z,98966.59
2022-09-14T15:58:31.436Z,98957.72
2022-09-14T16:01:02.270Z,98958.86
2022-09-14T16:03:32.084Z,98956.58
2022-09-14T16:06:02.124Z,98951.61
2022-09-14T16:08:33.239Z,98958.63
2022-09-14T16:11:04.757Z,98951.92
2022-09-14T16:13:35.781Z,98952.25
2022-09-14T16:16:10.924Z,98952.23
2022-09-14T16:18:41.731Z,98948.84
2022-09-14T16:21:24.140Z,98950.19
2022-09-14T16:23:56.413Z,98946.73
2022-09-14T16:26:30.581Z,98944.89
2022-09-14T16:29:01.966Z,98945.79
2022-09-14T16:31:32.709Z,98947.50
2022-09-14T16:34:06.081Z,98945.02
2022-09-14T16:36:38.972Z,98949.02
2022-09-14T16:39:16.198Z,98942.70
2022-09-14T16:41:47.042Z,98927.47
2022-09-14T16:44:19.956Z,98927.47
2022-09-14T16:46:50.644Z,98945.44
2022-09-14T16:49:24.980Z,98940.72
2022-09-14T16:51:52.891Z,98946.34
2022-09-14T16:54:24.368Z,98944.75
2022-09-14T16:56:59.240Z,98945.77
2022-09-14T16:59:29.090Z,98944.53
2022-09-14T17:01:59.168Z,98943.09
2022-09-14T17:04:29.378Z,98937.61
2022-09-14T17:06:59.090Z,98937.29
2022-09-14T17:09:32.930Z,98938.44
2022-09-14T17:12:03.153Z,98940.03
2022-09-14T17:14:34.634Z,98936.02
2022-09-14T17:17:04.902Z,98935.78
2022-09-14T17:19:35.108Z,98929.83
2022-09-14T17:22:06.634Z,98934.13
2022-09-14T17:24:36.660Z,98935.20
2022-09-14T17:27:06.927Z,98932.47
2022-09-14T17:29:39.517Z,98938.58
2022-09-14T17:32:14.628Z,98934.56
2022-09-14T17:34:44.907Z,98928.58
2022-09-14T17:37:14.871Z,98934.63
2022-09-14T17:39:45.150Z,98935.00
2022-09-14T17:42:14.963Z,98939.14
2022-09-14T17:44:45.108Z,98941.95
2022-09-14T17:47:17.267Z,98943.80
2022-09-14T17:49:49.920Z,98937.11
2022-09-14T17:52:20.083Z,98934.36
2022-09-14T17:54:53.804Z,98935.38
2022-09-14T17:57:23.854Z,98928.46
2022-09-14T17:59:54.077Z,98922.16
2022-09-14T18:02:24.337Z,98916.75
2022-09-14T18:04:55.417Z,98916.75
2022-09-14T18:07:25.542Z,98918.18
2022-09-14T18:09:58.678Z,98915.41
2022-09-14T18:12:28.756Z,98899.85
2022-09-14T18:14:59.242Z,98897.30
2022-09-14T18:17:32.587Z,98897.30
2022-09-14T18:20:04.696Z,98894.89
2022-09-14T18:22:34.985Z,98894.89
2022-09-14T18:25:10.924Z,98910.75
2022-09-14T18:27:41.126Z,98904.38
2022-09-14T18:30:11.652Z,98903.28
2022-09-14T18:32:42.647Z,98900.98
2022-09-14T18:35:14.586Z,98904.62
2022-09-14T18:37:44.884Z,98894.52
2022-09-14T18:40:20.008Z,98892.67
2022-09-14T18:42:50.271Z,98901.20
2022-09-14T18:45:21.370Z,98903.55
2022-09-14T18:48:01.641Z,98900.75
2022-09-14T18:50:31.697Z,98906.79
2022-09-14T18:53:02.247Z,98904.55
2022-09-14T18:55:34.403Z,98905.70
2022-09-14T18:58:04.712Z,98904.09
2022-09-14T19:00:37.853Z,98907.91
2022-09-14T19:03:09.086Z,98916.25
2022-09-14T19:05:42.883Z,98911.60
2022-09-14T19:08:14.335Z,98914.64
2022-09-14T19:10:44.346Z,98907.08
2022-09-14T19:13:15.447Z,98906.89
2022-09-14T19:15:46.557Z,98903.91
2022-09-14T19:18:16.637Z,98900.80
2022-09-14T19:21:05.755Z,98902.87
2022-09-14T19:23:21.851Z,98891.22
2022-09-14T19:25:52.712Z,98893.00
2022-09-14T19:28:22.314Z,98883.38
2022-09-14T19:30:53.235Z,98855.56
2022-09-14T19:33:24.355Z,98855.56
2022-09-14T19:35:54.237Z,98866.74
2022-09-14T19:38:24.070Z,98866.66
2022-09-14T19:40:54.402Z,98869.66
2022-09-14T19:43:23.928Z,98869.52
2022-09-14T19:45:53.977Z,98876.28
2022-09-14T19:48:26.051Z,98870.24
2022-09-14T19:51:02.300Z,98876.28
2022-09-14T19:53:35.567Z,98876.78
2022-09-14T19:56:10.063Z,98877.80
2022-09-14T19:58:43.794Z,98863.61
2022-09-14T20:01:14.125Z,98859.89
2022-09-14T20:03:49.408Z,98854.17
2022-09-14T20:06:31.961Z,98852.33
2022-09-14T20:09:04.958Z,98848.14
2022-09-14T20:11:36.305Z,98853.30
2022-09-14T20:14:08.915Z,98857.17
2022-09-14T20:16:41.391Z,98858.45
2022-09-14T20:19:13.911Z,98858.45
2022-09-14T20:21:48.467Z,98859.28
2022-09-14T20:24:26.434Z,98848.22
2022-09-14T20:27:00.854Z,98848.22
2022-09-14T20:29:35.423Z,98844.78
2022-09-14T20:32:06.776Z,98844.27
2022-09-14T20:34:36.601Z,98844.91
2022-09-14T20:37:09.710Z,98840.91
2022-09-14T20:39:41.974Z,98844.91
2022-09-14T20:42:13.893Z,98846.94
2022-09-14T20:44:44.142Z,98836.25
2022-09-14T20:47:14.679Z,98837.27
2022-09-14T20:49:44.929Z,98829.95
2022-09-14T20:52:14.585Z,98828.66
2022-09-14T20:54:45.578Z,98827.00
2022-09-14T20:57:15.390Z,98829.35
2022-09-14T20:59:45.109Z,98832.34
2022-09-14T21:02:15.087Z,98836.08
2022-09-14T21:04:55.407Z,98836.08
2022-09-14T21:07:24.359Z,98826.82
2022-09-14T21:09:57.082Z,98831.89
2022-09-14T21:12:27.442Z,98819.87
2022-09-14T21:14:57.336Z,98823.73
2022-09-14T21:17:29.078Z,98827.55
2022-09-14T21:19:59.040Z,98805.73
2022-09-14T21:22:45.902Z,98805.73
2022-09-14T21:25:26.688Z,98817.47
2022-09-14T21:27:56.596Z,98814.58
2022-09-14T21:30:38.990Z,98810.47
2022-09-14T21:33:08.876Z,98815.41
2022-09-14T21:35:38.621Z,98815.62
2022-09-14T21:38:08.866Z,98811.91
2022-09-14T21:40:39.041Z,98806.89
2022-09-14T21:43:08.788Z,98810.70
2022-09-14T21:45:41.639Z,98808.54
2022-09-14T21:48:11.420Z,98809.77
2022-09-14T21:50:45.333Z,98813.78
2022-09-14T21:53:13.898Z,98813.14
2022-09-14T21:55:43.729Z,98814.66
2022-09-14T21:58:13.344Z,98808.48
2022-09-14T22:00:43.174Z,98810.70
2022-09-14T22:03:12.727Z,98806.33
2022-09-14T22:05:42.549Z,98800.34
2022-09-14T22:08:12.836Z,98799.19
2022-09-14T22:10:42.395Z,98808.72
2022-09-14T22:13:12.212Z,98799.38
2022-09-14T22:15:42.577Z,98798.69
2022-09-14T22:18:12.209Z,98797.16
2022-09-14T22:20:43.204Z,98796.57
2022-09-14T22:23:14.885Z,98795.60
2022-09-14T22:25:44.706Z,98795.74
2022-09-14T22:28:16.235Z,98782.30
2022-09-14T22:30:54.214Z,98788.66
2022-09-14T22:33:26.916Z,98792.09
2022-09-14T22:36:00.349Z,98791.91
2022-09-14T22:38:32.181Z,98788.59
2022-09-14T22:41:05.400Z,98787.13
2022-09-14T22:43:35.889Z,98781.14
2022-09-14T22:46:07.694Z,98783.48
2022-09-14T22:48:38.689Z,98785.14
2022-09-14T22:51:10.833Z,98789.47
2022-09-14T22:53:40.719Z,98784.64
2022-09-14T22:56:19.108Z,98766.78
2022-09-14T22:58:51.820Z,98758.03
2022-09-14T23:01:24.585Z,98756.10
2022-09-14T23:04:03.504Z,98761.95
2022-09-14T23:06:36.637Z,98766.09
2022-09-14T23:09:08.553Z,98763.28
2022-09-14T23:11:38.884Z,98758.50
2022-09-14T23:14:08.643Z,98758.97
2022-09-14T23:16:38.606Z,98770.33
2022-09-14T23:19:09.262Z,98770.33
2022-09-14T23:21:39.354Z,98771.16
2022-09-14T23:24:08.985Z,98769.82
2022-09-14T23:26:38.922Z,98763.47
2022-09-14T23:29:11.605Z,98749.38
2022-09-14T23:31:41.474Z,98737.60
2022-09-14T23:34:11.557Z,98745.80
2022-09-14T23:36:41.968Z,98751.64
2022-09-14T23:39:11.894Z,98750.35
2022-09-14T23:41:41.699Z,98751.55
2022-09-14T23:44:12.842Z,98748.70
2022-09-14T23:46:42.644Z,98752.38
2022-09-14T23:49:13.653Z,98760.65
2022-09-14T23:51:43.832Z,98757.15
2022-09-14T23:54:13.462Z,98751.92
2022-09-14T23:56:43.905Z,98752.06
